Time;durP1;ratioP1;P1;durP2;ratioP2;P2;SDS_P1;SDS_P2;PMS_P1;PMS_P2;Temp;Humidity;BMP_temperature;BMP_pressure;BME280_temperature;BME280_humidity;BME280_pressure;Samples;Min_cycle;Max_cycle;Signal;HPM_P1;HPM_P2
2021/09/05 00:01:35;;;;;;;1.65;1.55;;;;;;;;;;5029303;28;20107;-78
2021/09/05 00:04:03;;;;;;;1.30;1.30;;;;;;;;;;5030566;28;20120;-78
2021/09/05 00:06:29;;;;;;;1.70;1.60;;;;;;;;;;5029011;28;20041;-78
2021/09/05 00:08:56;;;;;;;2.08;1.60;;;;;;;;;;5045549;28;20057;-78
2021/09/05 00:11:23;;;;;;;1.48;1.40;;;;;;;;;;5031606;28;20049;-78
2021/09/05 00:13:50;;;;;;;1.30;1.30;;;;;;;;;;5044127;28;20030;-78
2021/09/05 00:16:16;;;;;;;1.52;1.52;;;;;;;;;;5030228;28;20120;-78
2021/09/05 00:18:43;;;;;;;1.67;1.67;;;;;;;;;;5028859;28;20060;-78
2021/09/05 00:21:10;;;;;;;1.98;1.90;;;;;;;;;;5028788;28;20386;-78
2021/09/05 00:23:37;;;;;;;1.85;1.75;;;;;;;;;;5023016;28;20470;-78
2021/09/05 00:26:03;;;;;;;1.92;1.80;;;;;;;;;;5021173;28;20030;-78
2021/09/05 00:28:30;;;;;;;1.90;1.90;;;;;;;;;;5062691;28;20041;-78
2021/09/05 00:30:57;;;;;;;2.03;1.92;;;;;;;;;;5030304;28;20470;-78
2021/09/05 00:33:23;;;;;;;1.80;1.63;;;;;;;;;;5030226;28;20462;-78
2021/09/05 00:35:50;;;;;;;1.40;1.40;;;;;;;;;;5031138;28;20045;-78
2021/09/05 00:38:17;;;;;;;1.20;1.20;;;;;;;;;;5027285;28;20057;-78
2021/09/05 00:40:43;;;;;;;1.50;1.30;;;;;;;;;;5028993;28;20045;-78
2021/09/05 00:43:10;;;;;;;1.52;1.02;;;;;;;;;;5026367;28;20080;-79
2021/09/05 00:45:36;;;;;;;1.35;1.35;;;;;;;;;;5025096;28;20053;-78
2021/09/05 00:48:03;;;;;;;1.30;1.30;;;;;;;;;;5027744;28;20042;-78
2021/09/05 00:50:30;;;;;;;1.30;1.30;;;;;;;;;;5027976;28;20464;-78
2021/09/05 00:52:57;;;;;;;1.75;1.65;;;;;;;;;;5026802;28;20046;-78
2021/09/05 00:55:24;;;;;;;1.92;1.92;;;;;;;;;;5042674;28;20417;-78
2021/09/05 00:57:51;;;;;;;1.30;1.30;;;;;;;;;;5025204;28;20034;-78
2021/09/05 01:00:19;;;;;;;1.60;1.60;;;;;;;;;;5029394;28;20052;-78
2021/09/05 01:02:47;;;;;;;2.88;1.40;;;;;;;;;;5026411;28;20441;-78
2021/09/05 01:05:13;;;;;;;1.35;1.35;;;;;;;;;;5025619;28;20040;-78
2021/09/05 01:07:40;;;;;;;1.63;1.60;;;;;;;;;;5024982;28;20057;-78
2021/09/05 01:10:07;;;;;;;1.85;1.85;;;;;;;;;;5021124;28;20069;-78
2021/09/05 01:12:35;;;;;;;1.65;1.60;;;;;;;;;;5043828;28;20516;-78
2021/09/05 01:15:02;;;;;;;1.45;1.42;;;;;;;;;;5027060;28;20313;-78
2021/09/05 01:17:32;;;;;;;3.00;1.70;;;;;;;;;;5026383;28;20627;-78
2021/09/05 01:19:59;;;;;;;1.75;1.65;;;;;;;;;;5024227;28;20117;-78
2021/09/05 01:22:25;;;;;;;1.65;1.65;;;;;;;;;;5018781;28;20049;-78
2021/09/05 01:24:52;;;;;;;1.60;1.60;;;;;;;;;;5028660;28;20029;-78
2021/09/05 01:27:19;;;;;;;3.22;1.77;;;;;;;;;;5042847;28;20437;-79
2021/09/05 01:29:46;;;;;;;1.67;1.58;;;;;;;;;;5027440;28;20551;-79
2021/09/05 01:32:13;;;;;;;1.40;1.40;;;;;;;;;;5027492;28;20045;-78
2021/09/05 01:34:40;;;;;;;2.78;1.50;;;;;;;;;;5026855;28;20045;-78
2021/09/05 01:37:06;;;;;;;1.35;1.20;;;;;;;;;;5026815;28;20053;-78
2021/09/05 01:39:33;;;;;;;1.35;1.20;;;;;;;;;;5016744;28;1190376;-78
2021/09/05 01:42:00;;;;;;;1.65;1.55;;;;;;;;;;5029240;28;20061;-78
2021/09/05 01:44:26;;;;;;;1.40;1.40;;;;;;;;;;5007973;28;20513;-78
2021/09/05 01:46:54;;;;;;;2.20;2.17;;;;;;;;;;5021145;28;20041;-78
2021/09/05 01:49:20;;;;;;;2.05;1.50;;;;;;;;;;5028517;28;20041;-79
2021/09/05 01:51:47;;;;;;;1.42;1.40;;;;;;;;;;5027070;28;20038;-78
2021/09/05 01:54:13;;;;;;;2.20;2.00;;;;;;;;;;5028071;28;20052;-78
2021/09/05 01:56:40;;;;;;;1.33;1.15;;;;;;;;;;5027048;28;20049;-78
2021/09/05 01:59:06;;;;;;;1.85;1.75;;;;;;;;;;5027535;28;20414;-78
2021/09/05 02:01:34;;;;;;;1.75;1.20;;;;;;;;;;5027664;28;20047;-78
2021/09/05 02:04:02;;;;;;;2.67;2.22;;;;;;;;;;5060571;28;20433;-78
2021/09/05 02:06:29;;;;;;;1.98;1.98;;;;;;;;;;5028434;28;20036;-78
2021/09/05 02:08:56;;;;;;;1.92;1.55;;;;;;;;;;5027401;28;20038;-78
2021/09/05 02:11:23;;;;;;;1.92;1.83;;;;;;;;;;5026190;28;20784;-78
2021/09/05 02:13:50;;;;;;;2.90;2.58;;;;;;;;;;5025878;28;20080;-78
2021/09/05 02:16:17;;;;;;;1.60;1.60;;;;;;;;;;5028774;28;20119;-78
2021/09/05 02:18:44;;;;;;;1.50;1.40;;;;;;;;;;5023900;28;20401;-78
2021/09/05 02:21:11;;;;;;;1.75;1.65;;;;;;;;;;5027135;28;20037;-78
2021/09/05 02:23:37;;;;;;;1.85;1.85;;;;;;;;;;5025751;28;20034;-78
2021/09/05 02:26:05;;;;;;;1.40;1.30;;;;;;;;;;5011945;28;20037;-78
2021/09/05 02:28:32;;;;;;;1.95;1.85;;;;;;;;;;5028506;28;20091;-78
2021/09/05 02:30:59;;;;;;;1.83;1.70;;;;;;;;;;5050682;28;20920;-78
2021/09/05 02:33:25;;;;;;;1.90;1.80;;;;;;;;;;5027304;28;20490;-78
2021/09/05 02:35:52;;;;;;;1.60;1.15;;;;;;;;;;5025648;28;20111;-78
2021/09/05 02:38:19;;;;;;;1.65;1.52;;;;;;;;;;5017526;28;20493;-78
2021/09/05 02:40:45;;;;;;;1.80;1.70;;;;;;;;;;5026918;28;20076;-78
2021/09/05 02:43:12;;;;;;;5.43;1.65;;;;;;;;;;5025477;28;20037;-78
2021/09/05 02:45:39;;;;;;;1.77;1.77;;;;;;;;;;5027443;28;20493;-78
2021/09/05 02:48:06;;;;;;;1.70;1.70;;;;;;;;;;5025868;28;20072;-78
2021/09/05 02:50:32;;;;;;;2.13;1.75;;;;;;;;;;5026449;28;20072;-78
2021/09/05 02:52:59;;;;;;;1.70;1.70;;;;;;;;;;5024993;28;20065;-78
2021/09/05 02:55:26;;;;;;;1.85;1.60;;;;;;;;;;5053787;28;20037;-78
2021/09/05 02:57:52;;;;;;;3.20;1.65;;;;;;;;;;5027615;28;20099;-78
2021/09/05 03:00:19;;;;;;;2.30;2.20;;;;;;;;;;5057587;28;20057;-78
2021/09/05 03:02:45;;;;;;;1.52;1.52;;;;;;;;;;5026667;28;20069;-78
2021/09/05 03:05:13;;;;;;;2.78;2.67;;;;;;;;;;5027824;28;20393;-78
2021/09/05 03:07:40;;;;;;;2.05;1.83;;;;;;;;;;5026914;28;20048;-78
2021/09/05 03:10:07;;;;;;;1.98;1.98;;;;;;;;;;5026671;28;20073;-78
2021/09/05 03:12:33;;;;;;;2.00;1.90;;;;;;;;;;5026320;28;20577;-78
2021/09/05 03:15:00;;;;;;;2.28;2.17;;;;;;;;;;5009050;28;20029;-78
2021/09/05 03:17:28;;;;;;;3.50;1.92;;;;;;;;;;5028484;28;20460;-78
2021/09/05 03:19:55;;;;;;;1.70;1.63;;;;;;;;;;5023450;28;20045;-78
2021/09/05 03:22:21;;;;;;;1.90;1.90;;;;;;;;;;5049730;28;20037;-78
2021/09/05 03:24:48;;;;;;;1.70;1.63;;;;;;;;;;5026521;28;20367;-78
2021/09/05 03:27:15;;;;;;;2.13;2.03;;;;;;;;;;5027090;28;20100;-78
2021/09/05 03:29:41;;;;;;;4.45;2.60;;;;;;;;;;5009234;28;20045;-78
2021/09/05 03:32:08;;;;;;;2.30;2.20;;;;;;;;;;5024705;28;20068;-78
2021/09/05 03:34:34;;;;;;;1.73;1.63;;;;;;;;;;5025389;28;20038;-78
2021/09/05 03:37:01;;;;;;;1.70;1.67;;;;;;;;;;5026384;28;20045;-78
2021/09/05 03:39:28;;;;;;;1.77;1.77;;;;;;;;;;5024238;28;20532;-78
2021/09/05 03:41:55;;;;;;;1.60;1.50;;;;;;;;;;5013037;28;20084;-78
2021/09/05 03:44:22;;;;;;;2.22;2.22;;;;;;;;;;5024615;28;20037;-78
2021/09/05 03:46:49;;;;;;;1.90;1.80;;;;;;;;;;5026887;28;20029;-79
2021/09/05 03:49:16;;;;;;;2.28;1.38;;;;;;;;;;5027258;28;20046;-78
2021/09/05 03:51:42;;;;;;;1.70;1.60;;;;;;;;;;5025969;28;20053;-78
2021/09/05 03:54:09;;;;;;;2.83;2.25;;;;;;;;;;5025810;28;20068;-78
2021/09/05 03:56:36;;;;;;;1.88;1.77;;;;;;;;;;5024413;28;20041;-78
2021/09/05 03:59:03;;;;;;;3.63;2.45;;;;;;;;;;5041973;28;20039;-78
2021/09/05 04:01:31;;;;;;;2.10;2.10;;;;;;;;;;5042236;28;20061;-78
2021/09/05 04:03:58;;;;;;;2.28;2.17;;;;;;;;;;5024058;28;20562;-78
2021/09/05 04:06:25;;;;;;;2.10;2.00;;;;;;;;;;5025107;28;20543;-78
2021/09/05 04:08:52;;;;;;;2.30;2.22;;;;;;;;;;5024244;28;20037;-78
2021/09/05 04:11:19;;;;;;;2.13;1.77;;;;;;;;;;5024411;28;20264;-78
2021/09/05 04:13:45;;;;;;;2.45;2.30;;;;;;;;;;5058654;28;20429;-78
2021/09/05 04:16:12;;;;;;;2.42;2.28;;;;;;;;;;5024244;28;20458;-78
2021/09/05 04:18:39;;;;;;;3.33;2.05;;;;;;;;;;5009571;28;20038;-78
2021/09/05 04:21:06;;;;;;;1.83;1.83;;;;;;;;;;5057572;28;20064;-78
2021/09/05 04:23:32;;;;;;;1.95;1.60;;;;;;;;;;5024863;28;20127;-78
2021/09/05 04:25:59;;;;;;;1.92;1.92;;;;;;;;;;5017139;28;20042;-78
2021/09/05 04:28:26;;;;;;;2.13;2.03;;;;;;;;;;5020929;28;20075;-78
2021/09/05 04:30:53;;;;;;;2.50;1.67;;;;;;;;;;5025153;28;20037;-78
2021/09/05 04:33:20;;;;;;;1.75;1.70;;;;;;;;;;5045740;28;20041;-78
2021/09/05 04:35:46;;;;;;;1.90;1.80;;;;;;;;;;5043010;28;20509;-78
2021/09/05 04:38:13;;;;;;;1.95;1.77;;;;;;;;;;5012818;28;20238;-78
2021/09/05 04:40:39;;;;;;;3.05;1.98;;;;;;;;;;5059202;28;20035;-78
2021/09/05 04:43:06;;;;;;;1.92;1.80;;;;;;;;;;5029265;28;20403;-78
2021/09/05 04:45:33;;;;;;;2.28;1.95;;;;;;;;;;5061552;28;20398;-78
2021/09/05 04:48:00;;;;;;;2.70;2.55;;;;;;;;;;5028909;28;20049;-78
2021/09/05 04:50:27;;;;;;;2.67;2.58;;;;;;;;;;5030079;28;20485;-78
2021/09/05 04:52:53;;;;;;;2.13;2.08;;;;;;;;;;5060026;28;20041;-78
2021/09/05 04:55:20;;;;;;;2.17;2.17;;;;;;;;;;5028103;28;20025;-78
2021/09/05 04:57:47;;;;;;;1.95;1.95;;;;;;;;;;5060531;28;20536;-78
2021/09/05 05:00:13;;;;;;;1.77;1.77;;;;;;;;;;5025924;28;20555;-78
2021/09/05 05:02:40;;;;;;;2.63;2.42;;;;;;;;;;5029716;28;20042;-78
2021/09/05 05:05:07;;;;;;;2.33;2.13;;;;;;;;;;5027036;28;20084;-78
2021/09/05 05:07:35;;;;;;;2.58;1.42;;;;;;;;;;5023796;28;20488;-78
2021/09/05 05:10:01;;;;;;;1.88;1.77;;;;;;;;;;5024661;28;20436;-78
2021/09/05 05:12:28;;;;;;;1.98;1.88;;;;;;;;;;5021807;28;20048;-78
2021/09/05 05:14:55;;;;;;;1.98;1.98;;;;;;;;;;5012140;28;20046;-78
2021/09/05 05:17:21;;;;;;;2.55;2.55;;;;;;;;;;5026706;28;20045;-78
2021/09/05 05:19:48;;;;;;;2.42;2.15;;;;;;;;;;5025796;28;20044;-78
2021/09/05 05:22:15;;;;;;;2.95;2.85;;;;;;;;;;5059765;28;20045;-78
2021/09/05 05:24:41;;;;;;;2.05;2.05;;;;;;;;;;5038318;28;20095;-78
2021/09/05 05:27:08;;;;;;;3.20;2.13;;;;;;;;;;5027032;28;20041;-78
2021/09/05 05:29:35;;;;;;;2.65;2.20;;;;;;;;;;5042735;28;20045;-78
2021/09/05 05:32:01;;;;;;;1.75;1.75;;;;;;;;;;5029100;28;20041;-78
2021/09/05 05:34:28;;;;;;;1.90;1.80;;;;;;;;;;5027847;28;20501;-78
2021/09/05 05:36:55;;;;;;;2.17;2.17;;;;;;;;;;5010462;28;20041;-78
2021/09/05 05:39:25;;;;;;;2.63;2.58;;;;;;;;;;5007529;28;20402;-78
2021/09/05 05:41:52;;;;;;;1.83;1.83;;;;;;;;;;5023805;28;20041;-78
2021/09/05 05:44:19;;;;;;;2.85;2.75;;;;;;;;;;5058742;28;20041;-78
2021/09/05 05:46:45;;;;;;;2.33;2.25;;;;;;;;;;5025151;28;20038;-78
2021/09/05 05:49:12;;;;;;;2.22;1.60;;;;;;;;;;5024633;28;20034;-78
2021/09/05 05:51:39;;;;;;;2.10;2.05;;;;;;;;;;5027908;28;20046;-78
2021/09/05 05:54:05;;;;;;;2.25;2.15;;;;;;;;;;5028839;28;20099;-78
2021/09/05 05:56:32;;;;;;;1.83;1.83;;;;;;;;;;5027004;28;20041;-78
2021/09/05 05:58:58;;;;;;;1.70;1.70;;;;;;;;;;5060776;28;20448;-78
2021/09/05 06:01:25;;;;;;;1.92;1.83;;;;;;;;;;5026003;28;20501;-78
2021/09/05 06:03:52;;;;;;;1.90;1.90;;;;;;;;;;5026586;28;20405;-78
2021/09/05 06:06:19;;;;;;;1.40;1.40;;;;;;;;;;5026536;28;20045;-78
2021/09/05 06:08:45;;;;;;;2.13;2.03;;;;;;;;;;5026067;28;20060;-78
2021/09/05 06:11:12;;;;;;;2.10;2.10;;;;;;;;;;5027691;28;20555;-78
2021/09/05 06:13:39;;;;;;;2.35;2.08;;;;;;;;;;5025001;28;20061;-78
2021/09/05 06:16:05;;;;;;;2.17;1.70;;;;;;;;;;5026328;28;20045;-78
2021/09/05 06:18:32;;;;;;;2.97;1.50;;;;;;;;;;5027504;28;20037;-78
2021/09/05 06:20:59;;;;;;;2.03;1.80;;;;;;;;;;5027649;28;20498;-78
2021/09/05 06:23:26;;;;;;;1.58;1.58;;;;;;;;;;5021029;28;20468;-78
2021/09/05 06:25:52;;;;;;;2.55;2.35;;;;;;;;;;5028657;28;20042;-78
2021/09/05 06:28:19;;;;;;;3.13;1.70;;;;;;;;;;5027231;28;20045;-78
2021/09/05 06:30:46;;;;;;;1.67;1.67;;;;;;;;;;5059264;28;20038;-78
2021/09/05 06:33:12;;;;;;;2.50;2.30;;;;;;;;;;5026548;28;20037;-78
2021/09/05 06:35:39;;;;;;;2.55;1.80;;;;;;;;;;5026741;28;20048;-78
2021/09/05 06:38:06;;;;;;;4.00;1.73;;;;;;;;;;5058905;28;20580;-78
2021/09/05 06:40:32;;;;;;;2.05;1.98;;;;;;;;;;5026014;28;20130;-78
2021/09/05 06:42:59;;;;;;;5.22;2.10;;;;;;;;;;5026999;28;20037;-78
2021/09/05 06:45:27;;;;;;;1.58;1.48;;;;;;;;;;5024588;28;20525;-78
2021/09/05 06:47:53;;;;;;;1.58;1.58;;;;;;;;;;5028292;28;20034;-78
2021/09/05 06:50:20;;;;;;;1.50;1.50;;;;;;;;;;5037307;28;20034;-78
2021/09/05 06:52:47;;;;;;;2.47;1.38;;;;;;;;;;5048959;28;20133;-78
2021/09/05 06:55:13;;;;;;;1.60;1.60;;;;;;;;;;5026472;28;20042;-78
2021/09/05 06:57:40;;;;;;;1.80;1.80;;;;;;;;;;5041853;28;20477;-78
2021/09/05 07:00:07;;;;;;;1.45;1.45;;;;;;;;;;5025554;28;20042;-78
2021/09/05 07:02:34;;;;;;;2.65;1.90;;;;;;;;;;5028086;28;20099;-78
2021/09/05 07:05:02;;;;;;;1.70;1.30;;;;;;;;;;5024911;28;20045;-78
2021/09/05 07:07:43;;;;;;;4.35;1.30;;;;;;;;;;5024311;28;20042;-78
2021/09/05 07:10:10;;;;;;;1.20;1.20;;;;;;;;;;5039451;28;20045;-78
2021/09/05 07:12:40;;;;;;;2.13;1.38;;;;;;;;;;5026263;28;20037;-78
2021/09/05 07:15:07;;;;;;;3.85;1.50;;;;;;;;;;5016939;28;20277;-78
2021/09/05 07:17:33;;;;;;;1.20;1.20;;;;;;;;;;5036114;28;20033;-78
2021/09/05 07:20:00;;;;;;;1.30;1.20;;;;;;;;;;5024033;28;20073;-78
2021/09/05 07:22:27;;;;;;;1.40;1.30;;;;;;;;;;5042452;28;20397;-78
2021/09/05 07:24:54;;;;;;;1.30;1.30;;;;;;;;;;5022684;28;20034;-78
2021/09/05 07:27:21;;;;;;;1.25;1.15;;;;;;;;;;5035361;28;20042;-78
2021/09/05 07:29:47;;;;;;;1.20;1.20;;;;;;;;;;5036283;28;20041;-78
2021/09/05 07:32:14;;;;;;;1.20;1.20;;;;;;;;;;5010038;28;20049;-78
2021/09/05 07:34:40;;;;;;;1.70;1.50;;;;;;;;;;5027157;28;20069;-78
2021/09/05 07:37:08;;;;;;;1.02;1.02;;;;;;;;;;5025660;28;20514;-78
2021/09/05 07:39:35;;;;;;;1.10;1.10;;;;;;;;;;5026402;28;20419;-78
2021/09/05 07:42:02;;;;;;;1.40;1.30;;;;;;;;;;5054240;28;20128;-78
2021/09/05 07:44:28;;;;;;;1.20;1.10;;;;;;;;;;5027019;28;20402;-78
2021/09/05 07:46:55;;;;;;;1.00;1.00;;;;;;;;;;5025285;28;20441;-78
2021/09/05 07:49:21;;;;;;;1.20;1.10;;;;;;;;;;5041788;28;20049;-78
2021/09/05 07:51:48;;;;;;;2.80;1.80;;;;;;;;;;5025436;28;20095;-78
2021/09/05 07:54:15;;;;;;;0.98;0.98;;;;;;;;;;5026364;28;20113;-78
2021/09/05 07:56:42;;;;;;;1.10;1.10;;;;;;;;;;5025047;28;20037;-78
2021/09/05 07:59:08;;;;;;;2.88;0.90;;;;;;;;;;5025003;28;20443;-78
2021/09/05 08:01:35;;;;;;;1.00;0.98;;;;;;;;;;5031668;28;20037;-78
2021/09/05 08:04:07;;;;;;;2.78;1.20;;;;;;;;;;5027388;28;20095;-78
2021/09/05 08:06:34;;;;;;;3.05;1.00;;;;;;;;;;5025937;28;20042;-78
2021/09/05 08:09:00;;;;;;;2.90;1.20;;;;;;;;;;5031214;28;20087;-78
2021/09/05 08:11:27;;;;;;;1.30;1.30;;;;;;;;;;5032984;28;20057;-78
2021/09/05 08:13:54;;;;;;;5.57;0.98;;;;;;;;;;5046621;28;20029;-78
2021/09/05 08:16:21;;;;;;;1.50;1.00;;;;;;;;;;5032046;28;20543;-78
2021/09/05 08:18:48;;;;;;;0.90;0.90;;;;;;;;;;5046607;28;20401;-78
2021/09/05 08:21:15;;;;;;;1.83;1.00;;;;;;;;;;5031555;28;20156;-78
2021/09/05 08:23:42;;;;;;;1.60;1.27;;;;;;;;;;5030996;28;20089;-78
2021/09/05 08:26:11;;;;;;;0.90;0.90;;;;;;;;;;5028532;28;20083;-78
2021/09/05 08:28:39;;;;;;;1.08;0.98;;;;;;;;;;5050703;28;20406;-79
2021/09/05 08:31:05;;;;;;;1.23;1.13;;;;;;;;;;5066182;28;20501;-80
2021/09/05 08:33:32;;;;;;;1.10;1.10;;;;;;;;;;5032711;28;20030;-80
2021/09/05 08:35:59;;;;;;;2.25;1.00;;;;;;;;;;5034477;28;20034;-80
2021/09/05 08:38:25;;;;;;;0.93;0.93;;;;;;;;;;5034326;28;20091;-80
2021/09/05 08:40:52;;;;;;;0.90;0.90;;;;;;;;;;5031924;28;20037;-80
2021/09/05 08:43:20;;;;;;;0.90;0.90;;;;;;;;;;5034100;28;21937;-80
2021/09/05 08:45:48;;;;;;;1.77;0.90;;;;;;;;;;5048935;28;20056;-80
2021/09/05 08:48:16;;;;;;;2.92;0.90;;;;;;;;;;5032404;28;20041;-80
2021/09/05 08:50:43;;;;;;;1.00;1.00;;;;;;;;;;5031324;28;20065;-80
2021/09/05 08:53:10;;;;;;;1.02;0.80;;;;;;;;;;5031924;28;20037;-80
2021/09/05 08:55:38;;;;;;;1.38;0.90;;;;;;;;;;5034189;28;20041;-80
2021/09/05 08:58:05;;;;;;;1.00;0.90;;;;;;;;;;5031595;28;20422;-80
2021/09/05 09:00:35;;;;;;;3.63;0.80;;;;;;;;;;5034643;28;20041;-80
2021/09/05 09:03:02;;;;;;;0.93;0.93;;;;;;;;;;5032702;28;20037;-80
2021/09/05 09:05:32;;;;;;;0.82;0.82;;;;;;;;;;5032359;28;20046;-80
2021/09/05 09:08:00;;;;;;;0.70;0.70;;;;;;;;;;5035759;28;20033;-81
2021/09/05 09:10:27;;;;;;;0.80;0.80;;;;;;;;;;5031811;28;21002;-81
2021/09/05 09:12:54;;;;;;;0.80;0.80;;;;;;;;;;5035439;28;20080;-81
2021/09/05 09:15:22;;;;;;;0.90;0.90;;;;;;;;;;5034417;28;20099;-81
2021/09/05 09:17:50;;;;;;;0.75;0.75;;;;;;;;;;5035426;28;20030;-81
2021/09/05 09:20:30;;;;;;;0.98;0.80;;;;;;;;;;5034557;28;20079;-81
2021/09/05 09:23:23;;;;;;;2.03;1.00;;;;;;;;;;5049876;28;20048;-81
2021/09/05 09:25:56;;;;;;;2.08;1.00;;;;;;;;;;5011920;28;20041;-81
2021/09/05 09:28:35;;;;;;;0.80;0.80;;;;;;;;;;5047492;28;20040;-81
2021/09/05 09:31:15;;;;;;;1.10;0.90;;;;;;;;;;5063788;28;20057;-81
2021/09/05 09:33:43;;;;;;;0.70;0.70;;;;;;;;;;5035466;28;20025;-81
2021/09/05 09:36:12;;;;;;;1.95;1.20;;;;;;;;;;5033774;28;20042;-81
2021/09/05 09:38:41;;;;;;;0.90;0.90;;;;;;;;;;5062837;28;20430;-81
2021/09/05 09:41:09;;;;;;;0.80;0.80;;;;;;;;;;5030288;28;20076;-81
2021/09/05 09:43:55;;;;;;;0.75;0.75;;;;;;;;;;5060999;28;20045;-81
2021/09/05 09:46:23;;;;;;;0.88;0.82;;;;;;;;;;5025230;28;20041;-81
2021/09/05 09:48:51;;;;;;;0.70;0.70;;;;;;;;;;5027089;28;20429;-81
2021/09/05 09:51:18;;;;;;;0.90;0.90;;;;;;;;;;5027911;28;20033;-81
2021/09/05 09:53:45;;;;;;;0.80;0.80;;;;;;;;;;5029146;28;20041;-81
2021/09/05 09:56:16;;;;;;;3.00;0.80;;;;;;;;;;5028468;28;20045;-81
2021/09/05 09:58:44;;;;;;;0.70;0.70;;;;;;;;;;5026322;28;20698;-81
2021/09/05 10:01:12;;;;;;;0.70;0.70;;;;;;;;;;5027662;28;20077;-81
2021/09/05 10:03:40;;;;;;;0.70;0.70;;;;;;;;;;5012551;28;20057;-81
2021/09/05 10:06:07;;;;;;;0.60;0.60;;;;;;;;;;5061246;28;20086;-81
2021/09/05 10:08:35;;;;;;;0.60;0.60;;;;;;;;;;5027915;28;20076;-81
2021/09/05 10:11:02;;;;;;;0.60;0.60;;;;;;;;;;5028246;28;20045;-81
2021/09/05 10:13:30;;;;;;;0.95;0.68;;;;;;;;;;5041224;28;20029;-81
2021/09/05 10:15:57;;;;;;;0.73;0.63;;;;;;;;;;5026665;28;20048;-81
2021/09/05 10:18:24;;;;;;;0.90;0.70;;;;;;;;;;5026937;28;20367;-81
2021/09/05 10:20:51;;;;;;;0.60;0.60;;;;;;;;;;5030509;28;20033;-81
2021/09/05 10:23:44;;;;;;;1.00;0.73;;;;;;;;;;5028184;28;20048;-81
2021/09/05 10:26:11;;;;;;;;;;;;;;;;;;5021569;28;20049;-81
2021/09/05 10:28:45;;;;;;;0.65;0.60;;;;;;;;;;5025995;28;20700;-81
2021/09/05 10:31:27;;;;;;;1.67;0.70;;;;;;;;;;5028175;28;20040;-81
2021/09/05 10:33:54;;;;;;;0.68;0.68;;;;;;;;;;5029783;28;20033;-81
2021/09/05 10:36:24;;;;;;;1.23;0.70;;;;;;;;;;5041259;28;20041;-82
2021/09/05 10:39:11;;;;;;;0.80;0.80;;;;;;;;;;5037407;28;20414;-81
2021/09/05 10:41:49;;;;;;;0.60;0.60;;;;;;;;;;5062028;28;20043;-81
2021/09/05 10:44:17;;;;;;;0.68;0.68;;;;;;;;;;5027875;28;20496;-81
2021/09/05 10:46:47;;;;;;;0.88;0.70;;;;;;;;;;5016894;28;20468;-81
2021/09/05 10:49:14;;;;;;;0.98;0.60;;;;;;;;;;5029607;28;20103;-81
2021/09/05 10:51:47;;;;;;;0.70;0.70;;;;;;;;;;5024066;28;20037;-81
2021/09/05 10:54:25;;;;;;;0.70;0.70;;;;;;;;;;5021773;28;20069;-81
2021/09/05 10:56:52;;;;;;;0.70;0.70;;;;;;;;;;5023360;28;20350;-81
2021/09/05 10:59:21;;;;;;;0.70;0.70;;;;;;;;;;5027599;28;20048;-81
2021/09/05 11:01:48;;;;;;;0.80;0.80;;;;;;;;;;5027179;28;20555;-81
2021/09/05 11:04:16;;;;;;;0.93;0.70;;;;;;;;;;5026122;28;20131;-80
2021/09/05 11:06:46;;;;;;;0.80;0.80;;;;;;;;;;5028153;28;20061;-80
2021/09/05 11:09:25;;;;;;;1.65;0.70;;;;;;;;;;5024656;28;20571;-80
2021/09/05 11:12:25;;;;;;;1.30;0.70;;;;;;;;;;5030706;28;20558;-80
2021/09/05 11:14:52;;;;;;;0.75;0.75;;;;;;;;;;4996975;28;20053;-80
2021/09/05 11:17:26;;;;;;;0.70;0.70;;;;;;;;;;5058980;28;20109;-81
2021/09/05 11:19:57;;;;;;;0.70;0.70;;;;;;;;;;5012059;28;20551;-81
2021/09/05 11:22:34;;;;;;;1.42;0.70;;;;;;;;;;5030733;28;20518;-80
2021/09/05 11:25:05;;;;;;;1.92;0.70;;;;;;;;;;5022659;28;21520;-80
2021/09/05 11:27:33;;;;;;;0.70;0.70;;;;;;;;;;5026129;28;20057;-80
2021/09/05 11:30:01;;;;;;;0.73;0.73;;;;;;;;;;5029912;28;20111;-80
2021/09/05 11:32:28;;;;;;;0.75;0.73;;;;;;;;;;5028930;28;20072;-80
2021/09/05 11:34:58;;;;;;;1.25;0.85;;;;;;;;;;5045246;28;20117;-80
2021/09/05 11:37:28;;;;;;;0.80;0.70;;;;;;;;;;5008110;28;20099;-80
2021/09/05 11:39:56;;;;;;;0.70;0.70;;;;;;;;;;5022677;28;20076;-80
2021/09/05 11:42:23;;;;;;;0.80;0.80;;;;;;;;;;5060078;28;20038;-80
2021/09/05 11:44:59;;;;;;;0.70;0.70;;;;;;;;;;5057096;28;20493;-80
2021/09/05 11:47:26;;;;;;;1.00;1.00;;;;;;;;;;5057045;28;20117;-80
2021/09/05 11:49:55;;;;;;;0.80;0.80;;;;;;;;;;5032550;28;20042;-80
2021/09/05 11:52:23;;;;;;;0.70;0.70;;;;;;;;;;5034665;28;20087;-80
2021/09/05 11:54:58;;;;;;;0.70;0.70;;;;;;;;;;5033577;28;20091;-80
2021/09/05 11:57:25;;;;;;;1.15;0.70;;;;;;;;;;5063760;28;20030;-80
2021/09/05 11:59:52;;;;;;;0.73;0.73;;;;;;;;;;5033563;28;20072;-80
2021/09/05 12:02:29;;;;;;;0.68;0.63;;;;;;;;;;5026751;28;20119;-80
2021/09/05 12:04:57;;;;;;;0.70;0.70;;;;;;;;;;5037708;28;20136;-81
2021/09/05 12:07:24;;;;;;;0.70;0.70;;;;;;;;;;5034460;28;20049;-81
2021/09/05 12:10:23;;;;;;;0.68;0.68;;;;;;;;;;5033694;28;20496;-81
2021/09/05 12:13:01;;;;;;;0.70;0.70;;;;;;;;;;4991731;28;20101;-81
2021/09/05 12:15:44;;;;;;;0.70;0.70;;;;;;;;;;4992516;28;20117;-81
2021/09/05 12:18:22;;;;;;;0.60;0.60;;;;;;;;;;4992497;28;20046;-81
2021/09/05 12:20:49;;;;;;;1.15;1.00;;;;;;;;;;4984940;28;20269;-81
2021/09/05 12:23:19;;;;;;;0.60;0.60;;;;;;;;;;4992120;28;20057;-81
2021/09/05 12:25:45;;;;;;;0.70;0.70;;;;;;;;;;4988967;28;20109;-81
2021/09/05 12:28:18;;;;;;;0.77;0.70;;;;;;;;;;4992294;28;20506;-81
2021/09/05 12:30:50;;;;;;;0.70;0.70;;;;;;;;;;4991836;28;20053;-81
2021/09/05 12:33:18;;;;;;;0.60;0.60;;;;;;;;;;4991834;28;20479;-81
2021/09/05 12:35:45;;;;;;;0.60;0.60;;;;;;;;;;4991578;28;20530;-81
2021/09/05 12:38:11;;;;;;;1.58;0.68;;;;;;;;;;4988430;28;20041;-81
2021/09/05 12:40:40;;;;;;;0.60;0.60;;;;;;;;;;4991476;28;20046;-81
2021/09/05 12:43:07;;;;;;;0.60;0.60;;;;;;;;;;4976498;28;20054;-81
2021/09/05 12:45:34;;;;;;;1.23;0.70;;;;;;;;;;4991678;28;20057;-81
2021/09/05 12:48:11;;;;;;;1.52;0.60;;;;;;;;;;4975664;28;20501;-81
2021/09/05 12:50:38;;;;;;;1.15;0.60;;;;;;;;;;5062925;28;20029;-81
2021/09/05 12:53:09;;;;;;;0.60;0.60;;;;;;;;;;5032794;28;20119;-81
2021/09/05 12:55:36;;;;;;;0.70;0.70;;;;;;;;;;5064817;28;20092;-81
2021/09/05 12:58:03;;;;;;;0.65;0.65;;;;;;;;;;5017173;28;20048;-81
2021/09/05 13:00:30;;;;;;;0.60;0.60;;;;;;;;;;5032802;28;20670;-81
2021/09/05 13:02:59;;;;;;;0.60;0.60;;;;;;;;;;5030593;28;20105;-80
2021/09/05 13:05:26;;;;;;;1.02;0.60;;;;;;;;;;5019363;28;20507;-81
2021/09/05 13:07:53;;;;;;;2.42;0.63;;;;;;;;;;5049604;28;20111;-81
2021/09/05 13:10:20;;;;;;;0.60;0.60;;;;;;;;;;5033733;28;20041;-81
2021/09/05 13:12:47;;;;;;;0.60;0.60;;;;;;;;;;5032664;28;20665;-81
2021/09/05 13:15:13;;;;;;;1.27;0.70;;;;;;;;;;5030238;28;20433;-81
2021/09/05 13:17:40;;;;;;;0.70;0.70;;;;;;;;;;5029579;28;20056;-81
2021/09/05 13:20:07;;;;;;;1.95;0.70;;;;;;;;;;5019529;28;20049;-81
2021/09/05 13:22:34;;;;;;;0.70;0.70;;;;;;;;;;5031042;28;20038;-81
2021/09/05 13:25:01;;;;;;;3.22;0.75;;;;;;;;;;5030954;28;20045;-81
2021/09/05 13:27:28;;;;;;;1.15;0.60;;;;;;;;;;5030297;28;20149;-81
2021/09/05 13:29:55;;;;;;;0.60;0.60;;;;;;;;;;5031139;28;20087;-81
2021/09/05 13:32:22;;;;;;;0.70;0.70;;;;;;;;;;5033382;28;20044;-81
2021/09/05 13:34:49;;;;;;;1.35;0.80;;;;;;;;;;5031804;28;20041;-81
2021/09/05 13:37:16;;;;;;;1.08;0.70;;;;;;;;;;5048659;28;20289;-81
2021/09/05 13:39:43;;;;;;;0.60;0.60;;;;;;;;;;5040908;28;20050;-81
2021/09/05 13:42:09;;;;;;;1.20;0.73;;;;;;;;;;5021795;28;20033;-81
2021/09/05 13:44:37;;;;;;;0.65;0.65;;;;;;;;;;5032078;28;20052;-81
2021/09/05 13:47:03;;;;;;;2.33;0.75;;;;;;;;;;5031046;28;20493;-81
2021/09/05 13:49:42;;;;;;;0.70;0.70;;;;;;;;;;5014721;28;20038;-81
2021/09/05 13:52:09;;;;;;;0.70;0.70;;;;;;;;;;5031874;28;20045;-81
2021/09/05 13:54:36;;;;;;;0.70;0.70;;;;;;;;;;5023454;28;20073;-81
2021/09/05 13:57:02;;;;;;;0.70;0.70;;;;;;;;;;5032046;28;20065;-81
2021/09/05 13:59:29;;;;;;;0.70;0.68;;;;;;;;;;5064708;28;20051;-81
2021/09/05 14:01:56;;;;;;;0.70;0.70;;;;;;;;;;5033442;28;20041;-80
2021/09/05 14:04:24;;;;;;;1.35;0.70;;;;;;;;;;5024609;28;20053;-81
2021/09/05 14:06:50;;;;;;;1.50;0.90;;;;;;;;;;5025907;28;20050;-81
2021/09/05 14:09:17;;;;;;;0.70;0.70;;;;;;;;;;5022295;28;20064;-81
2021/09/05 14:11:44;;;;;;;0.70;0.70;;;;;;;;;;5058602;28;20053;-81
2021/09/05 14:14:10;;;;;;;0.60;0.60;;;;;;;;;;5011864;28;20067;-81
2021/09/05 14:16:37;;;;;;;0.70;0.70;;;;;;;;;;5034347;28;20494;-81
2021/09/05 14:19:03;;;;;;;0.70;0.70;;;;;;;;;;5042212;28;20493;-81
2021/09/05 14:21:30;;;;;;;0.70;0.70;;;;;;;;;;5019243;28;20112;-81
2021/09/05 14:23:58;;;;;;;0.70;0.70;;;;;;;;;;5025192;28;20624;-81
2021/09/05 14:26:26;;;;;;;0.70;0.70;;;;;;;;;;5026266;28;20042;-81
2021/09/05 14:28:54;;;;;;;0.70;0.70;;;;;;;;;;5027648;28;20067;-79
2021/09/05 14:31:32;;;;;;;1.45;0.63;;;;;;;;;;5044243;28;20033;-79
2021/09/05 14:50:21;;;;;;;0.60;0.60;;;;;;;;;;5016613;28;20037;-80
2021/09/05 14:55:33;;;;;;;1.95;0.60;;;;;;;;;;5024282;28;20129;-80
2021/09/05 14:58:02;;;;;;;0.65;0.55;;;;;;;;;;5018471;28;20044;-80
2021/09/05 15:00:28;;;;;;;0.68;0.68;;;;;;;;;;5062892;28;20092;-80
2021/09/05 15:03:08;;;;;;;0.60;0.60;;;;;;;;;;5061896;28;20052;-80
2021/09/05 15:11:04;;;;;;;1.63;0.60;;;;;;;;;;5030708;28;20067;-80
2021/09/05 15:13:31;;;;;;;0.60;0.60;;;;;;;;;;5063658;28;20297;-80